Time;durP1;ratioP1;P1;durP2;ratioP2;P2;SDS_P1;SDS_P2;PMS_P1;PMS_P2;Temp;Humidity;BMP_temperature;BMP_pressure;BME280_temperature;BME280_humidity;BME280_pressure;Samples;Min_cycle;Max_cycle;Signal;HPM_P1;HPM_P2
2023/10/17 00:01:10;;;;;;;19.57;8.50;;;;;;;2.74;100.00;100950.59;1444672;90;23160;-78
2023/10/17 00:03:37;;;;;;;17.53;9.30;;;;;;;2.74;100.00;100950.59;1448292;90;21939;-77
2023/10/17 00:06:06;;;;;;;13.17;7.73;;;;;;;2.73;100.00;100947.58;1447344;90;22058;-78
2023/10/17 00:08:34;;;;;;;16.37;7.47;;;;;;;2.73;100.00;100947.58;1452352;90;22131;-78
2023/10/17 00:11:21;;;;;;;9.90;6.70;;;;;;;2.74;100.00;100949.28;1437163;90;22302;-78
2023/10/17 00:13:45;;;;;;;11.77;7.60;;;;;;;2.73;100.00;100947.58;1449244;90;22375;-78
2023/10/17 00:16:11;;;;;;;;;;;;;;;2.74;100.00;100947.51;1456021;90;21836;-77
2023/10/17 00:18:37;;;;;;;12.90;7.30;;;;;;;2.70;100.00;100946.84;1446490;89;21052;-78
2023/10/17 00:21:22;;;;;;;13.30;8.23;;;;;;;2.66;100.00;100945.77;1433985;90;22776;-78
2023/10/17 00:23:40;;;;;;;15.50;8.57;;;;;;;2.66;100.00;100945.77;1444815;89;23150;-78
2023/10/17 00:26:12;;;;;;;17.43;8.83;;;;;;;2.60;100.00;100956.56;1453226;90;21840;-78
2023/10/17 00:28:35;;;;;;;13.20;8.33;;;;;;;2.49;100.00;100941.47;1454769;90;22918;-78
2023/10/17 00:31:04;;;;;;;11.90;7.77;;;;;;;2.53;100.00;100945.58;1445279;90;21940;-79
2023/10/17 00:33:32;;;;;;;13.87;8.63;;;;;;;2.45;100.00;100954.33;1457178;90;21820;-78
2023/10/17 00:36:03;;;;;;;20.50;10.33;;;;;;;2.36;100.00;100953.05;1448990;90;22722;-78
2023/10/17 00:38:29;;;;;;;20.87;11.90;;;;;;;2.30;100.00;100953.82;1447321;90;22865;-78
2023/10/17 00:40:56;;;;;;;20.43;11.37;;;;;;;2.26;100.00;100951.84;1450466;90;21785;-78
2023/10/17 00:43:24;;;;;;;17.90;9.53;;;;;;;2.25;100.00;100948.86;1449849;90;22553;-80
2023/10/17 00:45:50;;;;;;;17.43;9.23;;;;;;;2.23;100.00;100943.70;1455598;90;22340;-79
2023/10/17 00:48:22;;;;;;;16.90;9.43;;;;;;;2.22;100.00;100939.88;1445568;90;21775;-79
2023/10/17 00:50:56;;;;;;;17.30;9.23;;;;;;;2.23;100.00;100942.39;1449422;89;21983;-78
2023/10/17 00:53:20;;;;;;;21.23;10.80;;;;;;;2.26;100.00;100940.09;1452261;89;22374;-79
2023/10/17 00:55:56;;;;;;;19.97;10.10;;;;;;;2.23;100.00;100939.78;1449141;90;21757;-77
2023/10/17 00:58:18;;;;;;;19.87;9.73;;;;;;;2.21;100.00;100939.48;1451897;90;21995;-79
2023/10/17 01:00:53;;;;;;;18.17;8.70;;;;;;;2.17;100.00;100934.05;1456677;90;21420;-80
2023/10/17 01:03:13;;;;;;;19.03;9.30;;;;;;;2.09;100.00;100940.98;1448101;90;21828;-80
2023/10/17 01:06:10;;;;;;;14.30;8.60;;;;;;;1.99;100.00;100930.66;1450899;90;21907;-81
2023/10/17 01:08:39;;;;;;;24.27;9.43;;;;;;;1.90;100.00;100931.11;1452490;90;21715;-78
2023/10/17 01:10:58;;;;;;;20.67;11.73;;;;;;;1.84;100.00;100932.73;1453089;89;22367;-77
2023/10/17 01:13:26;;;;;;;19.90;9.73;;;;;;;1.84;100.00;100931.42;1447788;89;21799;-79
2023/10/17 01:15:52;;;;;;;17.57;9.10;;;;;;;1.85;100.00;100925.30;1438392;90;22686;-78
2023/10/17 01:18:19;;;;;;;16.47;8.97;;;;;;;1.86;100.00;100925.67;1441915;90;21565;-78
2023/10/17 01:20:45;;;;;;;14.57;8.33;;;;;;;1.86;100.00;100925.67;1447378;90;21769;-79
2023/10/17 01:23:11;;;;;;;16.90;10.57;;;;;;;1.81;100.00;100918.07;1453523;90;21663;-79
2023/10/17 01:25:41;;;;;;;19.13;10.47;;;;;;;1.72;100.00;100919.39;1455658;89;21790;-79
2023/10/17 01:28:06;;;;;;;15.83;10.67;;;;;;;1.65;100.00;100924.55;1444844;89;22640;-79
2023/10/17 01:30:33;;;;;;;18.37;10.30;;;;;;;1.63;100.00;100926.39;1452524;89;21849;-79
2023/10/17 01:33:00;;;;;;;20.83;10.23;;;;;;;1.63;100.00;100929.47;1448855;90;22153;-79
2023/10/17 01:35:26;;;;;;;14.80;9.17;;;;;;;1.61;100.00;100932.14;1453526;90;21788;-78
2023/10/17 01:37:55;;;;;;;13.87;8.20;;;;;;;1.60;100.00;100936.98;1450274;90;22377;-78
2023/10/17 01:40:31;;;;;;;14.67;7.70;;;;;;;1.58;100.00;100936.21;1450615;90;21673;-78
2023/10/17 01:42:57;;;;;;;18.33;9.83;;;;;;;1.58;100.00;100934.91;1455265;90;21532;-79
2023/10/17 01:45:25;;;;;;;18.40;8.87;;;;;;;1.61;100.00;100937.36;1453655;90;22443;-80
2023/10/17 01:47:52;;;;;;;23.50;10.60;;;;;;;1.63;100.00;100938.59;1457742;90;22272;-79
2023/10/17 01:50:19;;;;;;;17.90;9.40;;;;;;;1.62;100.00;100940.38;1451947;89;21701;-80
2023/10/17 01:52:46;;;;;;;23.43;10.97;;;;;;;1.61;100.00;100944.34;1457410;90;21629;-80
2023/10/17 01:55:15;;;;;;;19.77;10.33;;;;;;;1.61;100.00;100948.27;1452304;90;22555;-79
2023/10/17 01:57:48;;;;;;;18.63;9.27;;;;;;;1.61;100.00;100950.41;1455472;90;21606;-78
2023/10/17 02:00:57;;;;;;;15.93;8.43;;;;;;;1.62;100.00;100952.11;1447168;90;21680;-78
2023/10/17 02:02:45;;;;;;;12.93;8.13;;;;;;;1.63;100.00;100956.40;1443426;90;21665;-79
2023/10/17 02:05:12;;;;;;;10.80;7.13;;;;;;;1.67;100.00;100951.42;1455617;90;21639;-80
2023/10/17 02:07:38;;;;;;;16.00;8.23;;;;;;;1.72;100.00;100950.70;1435906;90;21645;-77
2023/10/17 02:10:09;;;;;;;25.63;10.37;;;;;;;1.78;100.00;100959.55;1448273;90;21624;-78
2023/10/17 02:12:36;;;;;;;14.73;7.17;;;;;;;1.79;100.00;100946.88;1453740;90;21754;-77
2023/10/17 02:15:05;;;;;;;12.87;7.77;;;;;;;1.69;100.00;100946.95;1451386;90;21383;-77
2023/10/17 02:17:30;;;;;;;13.37;7.27;;;;;;;1.69;100.00;100946.95;1452420;89;22708;-78
2023/10/17 02:19:59;;;;;;;14.10;8.37;;;;;;;1.65;100.00;100954.56;1446775;90;21606;-80
2023/10/17 02:22:26;;;;;;;12.00;7.17;;;;;;;1.65;100.00;100954.56;1440350;90;22575;-78
2023/10/17 02:24:56;;;;;;;10.73;6.50;;;;;;;1.64;100.00;100955.50;1456597;90;21665;-78
2023/10/17 02:27:21;;;;;;;11.00;6.87;;;;;;;1.64;100.00;100958.11;1452682;90;21821;-78
2023/10/17 02:29:48;;;;;;;12.47;8.37;;;;;;;1.62;100.00;100958.63;1445719;90;22414;-77
2023/10/17 02:32:15;;;;;;;12.30;7.40;;;;;;;1.56;100.00;100951.13;1450223;90;21786;-78
2023/10/17 02:34:43;;;;;;;11.43;7.73;;;;;;;1.53;100.00;100953.89;1457298;90;22551;-78
2023/10/17 02:37:16;;;;;;;14.23;8.80;;;;;;;1.53;100.00;100955.19;1452419;90;21626;-79
2023/10/17 02:39:40;;;;;;;13.43;7.00;;;;;;;1.51;100.00;100954.41;1435514;90;21694;-78
2023/10/17 02:42:06;;;;;;;14.17;8.13;;;;;;;1.43;100.00;100952.64;1422495;90;21405;-78
2023/10/17 02:44:33;;;;;;;14.00;8.37;;;;;;;1.38;100.00;100953.33;1448064;90;22598;-78
2023/10/17 02:47:01;;;;;;;20.00;10.30;;;;;;;1.35;100.00;100959.09;1451747;90;21597;-78
2023/10/17 02:49:36;;;;;;;14.20;8.23;;;;;;;1.37;100.00;100955.09;1456024;90;22191;-78
2023/10/17 02:51:56;;;;;;;12.53;7.20;;;;;;;1.39;100.00;100946.74;1443057;90;21629;-79
2023/10/17 02:54:27;;;;;;;14.33;9.17;;;;;;;1.42;100.00;100950.97;1451197;90;21869;-79
2023/10/17 02:56:53;;;;;;;14.47;8.57;;;;;;;1.43;100.00;100948.73;1445081;90;21813;-79
2023/10/17 02:59:21;;;;;;;14.60;9.43;;;;;;;1.42;100.00;100950.50;1447075;90;21901;-79
2023/10/17 03:01:57;;;;;;;13.70;9.60;;;;;;;1.46;100.00;100953.80;1453540;90;22679;-79
2023/10/17 03:04:17;;;;;;;19.97;11.13;;;;;;;1.45;100.00;100952.95;1436117;89;22472;-79
2023/10/17 03:06:45;;;;;;;14.27;8.67;;;;;;;1.46;100.00;100965.53;1457354;90;21727;-79
2023/10/17 03:14:23;;;;;;;22.67;10.82;;;;;;;1.56;100.00;100969.38;1449531;89;21836;-79
2023/10/17 03:16:54;;;;;;;20.13;11.73;;;;;;;1.64;100.00;100967.67;1446355;89;22314;-79
2023/10/17 03:19:26;;;;;;;21.35;11.18;;;;;;;1.70;100.00;100965.63;1453097;90;21730;-79
2023/10/17 03:21:59;;;;;;;25.27;13.07;;;;;;;1.75;100.00;100966.20;1449494;90;21531;-80
2023/10/17 03:24:46;;;;;;;32.67;13.43;;;;;;;1.79;100.00;100966.45;1450819;90;21796;-80
2023/10/17 03:27:07;;;;;;;28.53;14.23;;;;;;;1.83;100.00;100963.22;1442806;90;21831;-80
2023/10/17 03:29:25;;;;;;;24.50;12.17;;;;;;;1.81;100.00;100959.83;1444894;90;21849;-80
2023/10/17 03:31:58;;;;;;;29.43;13.47;;;;;;;1.79;100.00;100964.31;1453449;90;21738;-80
2023/10/17 03:34:34;;;;;;;22.25;11.68;;;;;;;1.79;100.00;100965.14;1453370;90;21768;-82
2023/10/17 03:36:52;;;;;;;25.83;11.90;;;;;;;1.82;100.00;100968.53;1438151;90;21471;-81
2023/10/17 03:39:26;;;;;;;26.73;12.30;;;;;;;1.85;100.00;100962.69;1437363;90;21683;-81
2023/10/17 03:41:56;;;;;;;26.87;13.22;;;;;;;1.90;100.00;100959.38;1451651;90;21710;-81
2023/10/17 03:44:17;;;;;;;18.10;9.87;;;;;;;1.91;100.00;100955.84;1439653;90;21523;-80
2023/10/17 03:46:48;;;;;;;26.60;11.57;;;;;;;1.93;100.00;100961.84;1444890;90;21731;-81
2023/10/17 03:49:23;;;;;;;29.63;13.45;;;;;;;1.98;100.00;100955.05;1429831;90;21783;-81
2023/10/17 03:51:52;;;;;;;28.77;11.37;;;;;;;1.99;100.00;100965.89;1449086;90;21449;-81
2023/10/17 03:54:18;;;;;;;24.85;12.13;;;;;;;1.97;100.00;100959.90;1438046;90;21748;-79
2023/10/17 03:56:48;;;;;;;23.10;10.63;;;;;;;1.95;100.00;100953.91;1438995;90;21523;-79
2023/10/17 04:01:41;;;;;;;15.53;10.10;;;;;;;1.93;100.00;100961.00;1450358;90;21435;-78
2023/10/17 04:04:12;;;;;;;16.43;9.93;;;;;;;1.89;100.00;100962.06;1459866;90;22843;-78
2023/10/17 04:06:39;;;;;;;19.10;11.03;;;;;;;1.82;100.00;100963.31;1455953;90;21872;-79
2023/10/17 04:09:17;;;;;;;14.97;10.73;;;;;;;1.84;100.00;100976.64;1437024;90;21736;-79
2023/10/17 04:11:55;;;;;;;19.97;11.30;;;;;;;1.84;100.00;100976.64;1446968;89;22882;-79
2023/10/17 04:14:20;;;;;;;14.57;9.00;;;;;;;1.95;100.00;100972.18;1453810;90;22060;-79
2023/10/17 04:16:44;;;;;;;14.30;9.17;;;;;;;1.95;100.00;100972.18;1446951;90;22033;-79
2023/10/17 04:19:20;;;;;;;15.07;9.87;;;;;;;2.01;100.00;100974.47;1452564;90;21777;-80
2023/10/17 04:21:51;;;;;;;19.23;9.83;;;;;;;1.99;100.00;100968.04;1455018;90;22750;-79
2023/10/17 04:24:27;;;;;;;22.43;9.87;;;;;;;1.95;100.00;100967.80;1435350;90;22440;-80
2023/10/17 04:26:47;;;;;;;18.30;11.73;;;;;;;1.91;100.00;100965.45;1448386;89;21740;-80
2023/10/17 04:29:17;;;;;;;17.10;11.03;;;;;;;1.92;100.00;100980.17;1434846;90;21689;-80
2023/10/17 04:31:47;;;;;;;16.93;10.53;;;;;;;1.92;100.00;100980.17;1461009;90;21829;-79
2023/10/17 04:34:15;;;;;;;14.70;10.28;;;;;;;1.95;100.00;100978.70;1450360;90;21896;-79
2023/10/17 04:36:41;;;;;;;13.57;10.00;;;;;;;1.97;100.00;100982.09;1447153;90;21456;-79
2023/10/17 04:39:19;;;;;;;18.97;10.93;;;;;;;1.97;100.00;100982.09;1450732;89;22609;-80
2023/10/17 04:45:13;;;;;;;16.43;11.77;;;;;;;1.94;100.00;100991.39;1456300;90;22235;-80
2023/10/17 04:49:32;;;;;;;21.67;9.63;;;;;;;1.86;100.00;100989.63;1452909;90;21867;-79
2023/10/17 04:52:08;;;;;;;16.17;10.33;;;;;;;1.78;100.00;100990.88;1454721;90;22775;-79
2023/10/17 04:57:15;;;;;;;16.30;10.90;;;;;;;1.65;100.00;100991.09;1453056;90;21807;-81
2023/10/17 04:59:43;;;;;;;17.90;10.07;;;;;;;1.54;100.00;100990.31;1453445;90;21779;-80
2023/10/17 05:07:34;;;;;;;12.27;8.53;;;;;;;1.50;100.00;100999.70;1446435;90;22455;-79
2023/10/17 06:19:21;;;;;;;19.87;12.73;;;;;;;1.94;100.00;101038.38;1442935;89;21918;-80
2023/10/17 06:27:13;;;;;;;22.10;13.13;;;;;;;2.15;100.00;101043.80;1453613;90;22772;-78
2023/10/17 06:34:47;;;;;;;;;;;;;;;2.35;100.00;101036.71;1446149;90;21567;-81
2023/10/17 06:37:20;;;;;;;22.77;14.60;;;;;;;2.50;100.00;101035.90;1450213;90;20241;-81
2023/10/17 06:39:50;;;;;;;23.47;15.73;;;;;;;2.50;100.00;101035.90;1447260;89;22173;-79
2023/10/17 06:42:27;;;;;;;22.10;16.33;;;;;;;2.70;100.00;101044.86;1445759;89;22107;-81
2023/10/17 06:44:54;;;;;;;;;;;;;;;2.94;100.00;101041.38;1452391;89;22703;-78
2023/10/17 06:47:31;;;;;;;39.10;25.80;;;;;;;3.06;100.00;101035.93;1449916;90;20367;-79
2023/10/17 06:52:40;;;;;;;34.45;24.07;;;;;;;3.28;100.00;101053.03;1512083;90;24369;-80
2023/10/17 06:54:59;;;;;;;27.17;19.23;;;;;;;3.60;100.00;101054.70;1522992;89;21461;-81
2023/10/17 06:57:24;;;;;;;19.43;12.87;;;;;;;3.60;100.00;101024.59;1378061;89;22190;-82
2023/10/17 07:00:00;;;;;;;14.07;11.60;;;;;;;3.74;100.00;101047.37;1390538;89;21851;-80
2023/10/17 07:02:34;;;;;;;17.20;12.70;;;;;;;3.87;100.00;101054.03;1452991;89;21501;-81
2023/10/17 07:05:01;;;;;;;17.33;12.80;;;;;;;4.00;100.00;101054.15;1453191;89;21420;-81
2023/10/17 07:07:40;;;;;;;14.73;11.60;;;;;;;4.20;100.00;101056.47;1451977;90;21382;-80
2023/10/17 07:10:16;;;;;;;15.17;11.77;;;;;;;4.33;100.00;101059.18;1447049;90;21420;-80
2023/10/17 07:12:50;;;;;;;13.03;11.40;;;;;;;4.48;100.00;101055.62;1446443;90;21582;-82
2023/10/17 07:15:18;;;;;;;13.50;11.10;;;;;;;4.42;100.00;101062.55;1448940;90;21612;-81
2023/10/17 07:18:39;;;;;;;14.43;12.03;;;;;;;4.36;100.00;101065.55;1452243;90;22411;-79
2023/10/17 07:21:15;;;;;;;14.90;11.37;;;;;;;4.36;100.00;101077.34;1481503;90;22161;-77
2023/10/17 07:22:57;;;;;;;18.87;12.93;;;;;;;4.34;100.00;101076.58;1524891;90;21383;-78
2023/10/17 07:25:24;;;;;;;16.53;11.17;;;;;;;4.40;100.00;101080.17;1377487;90;21406;-76
2023/10/17 07:27:52;;;;;;;18.73;12.60;;;;;;;4.43;100.00;101083.91;1364022;91;21339;-77
2023/10/17 07:30:35;;;;;;;16.57;12.63;;;;;;;4.44;100.00;101073.80;1362732;91;22131;-77
2023/10/17 07:32:56;;;;;;;20.80;11.77;;;;;;;4.46;100.00;101069.31;1489335;89;21361;-77
2023/10/17 07:35:24;;;;;;;17.43;13.80;;;;;;;4.52;100.00;101075.49;1526180;90;21324;-78
2023/10/17 07:37:54;;;;;;;22.93;13.87;;;;;;;4.53;100.00;101079.78;1378189;89;21266;-79
2023/10/17 07:43:01;;;;;;;;;;;;;;;4.68;100.00;101075.86;1535904;89;21362;-76
2023/10/17 07:45:41;;;;;;;17.80;11.83;;;;;;;4.87;100.00;101074.27;1378448;90;20778;-78
2023/10/17 07:48:20;;;;;;;19.57;11.40;;;;;;;4.93;100.00;101076.03;1533560;89;21221;-79
2023/10/17 07:50:50;;;;;;;13.73;11.60;;;;;;;4.98;100.00;101081.84;1528444;90;21273;-79
2023/10/17 07:53:21;;;;;;;17.35;12.98;;;;;;;5.05;100.00;101075.73;1447031;91;21295;-81
2023/10/17 07:55:52;;;;;;;15.63;12.57;;;;;;;5.19;100.00;101080.13;1374127;89;22080;-79
2023/10/17 07:58:31;;;;;;;12.15;10.88;;;;;;;5.29;100.00;101078.58;1376036;89;21362;-78
2023/10/17 08:00:48;;;;;;;16.50;11.93;;;;;;;5.37;100.00;101080.73;1516677;89;21309;-79
2023/10/17 08:03:19;;;;;;;26.67;19.20;;;;;;;5.56;100.00;101078.61;1531308;90;21377;-79
2023/10/17 08:08:33;;;;;;;54.53;46.48;;;;;;;6.07;100.00;101067.41;1527927;90;21302;-79
2023/10/17 08:10:58;;;;;;;17.27;13.37;;;;;;;6.16;100.00;101068.13;1529544;89;21295;-79
2023/10/17 08:13:24;;;;;;;15.20;12.93;;;;;;;6.25;100.00;101067.50;1374049;90;22271;-80
2023/10/17 08:15:53;;;;;;;23.70;14.07;;;;;;;6.27;100.00;101071.32;1378334;90;21251;-79
2023/10/17 08:18:23;;;;;;;16.40;10.90;;;;;;;6.16;100.00;101077.33;1374248;90;21310;-79
2023/10/17 08:23:52;;;;;;;14.30;12.00;;;;;;;6.08;100.00;101077.83;1533676;90;22013;-81
2023/10/17 08:26:18;;;;;;;17.03;11.43;;;;;;;5.96;100.00;101076.50;1364553;91;21487;-78
2023/10/17 08:31:24;;;;;;;15.90;13.13;;;;;;;6.18;100.00;101078.04;1365040;91;21288;-79
2023/10/17 08:36:28;;;;;;;15.30;12.40;;;;;;;6.55;100.00;101071.59;1533535;90;21221;-79
2023/10/17 08:38:54;;;;;;;16.60;12.50;;;;;;;6.84;100.00;101073.98;1374072;90;21383;-80
2023/10/17 08:41:26;;;;;;;15.40;11.27;;;;;;;7.09;100.00;101076.58;1382134;89;21443;-78
2023/10/17 08:43:51;;;;;;;14.50;10.93;;;;;;;7.34;100.00;101069.56;1532484;90;22116;-80
2023/10/17 08:46:18;;;;;;;15.10;11.90;;;;;;;7.55;100.00;101064.03;1377583;89;21251;-79
2023/10/17 08:48:45;;;;;;;20.33;12.23;;;;;;;7.72;100.00;101063.28;1376073;89;21377;-79
2023/10/17 08:51:14;;;;;;;15.50;10.97;;;;;;;7.64;100.00;101062.03;1378461;89;21258;-79
2023/10/17 08:53:42;;;;;;;18.87;12.17;;;;;;;7.73;100.00;101060.52;1375144;90;22271;-80
2023/10/17 08:56:08;;;;;;;15.93;12.40;;;;;;;7.86;100.00;101061.77;1376823;89;21416;-81
2023/10/17 08:58:36;;;;;;;22.47;11.10;;;;;;;8.06;100.00;101063.75;1383599;89;21478;-81
2023/10/17 09:01:14;;;;;;;13.37;10.67;;;;;;;8.29;100.00;101067.28;1363348;91;21288;-79
2023/10/17 09:03:46;;;;;;;14.60;9.80;;;;;;;8.65;100.00;101068.05;1533672;90;21375;-79
2023/10/17 09:11:14;;;;;;;11.23;9.20;;;;;;;9.99;100.00;101071.35;1377901;89;21221;-80
2023/10/17 09:16:13;;;;;;;12.90;10.00;;;;;;;11.30;100.00;101061.79;1533518;90;21368;-79
2023/10/17 09:18:49;;;;;;;14.00;10.67;;;;;;;11.83;100.00;101059.77;1377670;90;21251;-81
2023/10/17 09:21:16;;;;;;;11.70;8.63;;;;;;;12.38;100.00;101062.64;1533508;90;22042;-81
2023/10/17 09:23:43;;;;;;;14.30;10.47;;;;;;;12.89;100.00;101056.02;1376771;90;21406;-79
2023/10/17 09:26:19;;;;;;;16.77;9.90;;;;;;;13.44;100.00;101052.02;1377785;90;21243;-81
2023/10/17 09:28:40;;;;;;;12.57;10.03;;;;;;;13.73;100.00;101049.63;1378069;91;21486;-80
2023/10/17 09:31:12;;;;;;;11.37;9.57;;;;;;;13.58;100.00;101043.14;1370130;90;21258;-78
2023/10/17 09:33:48;;;;;;;12.43;9.47;;;;;;;13.94;100.00;101051.95;1432704;90;21383;-81
2023/10/17 09:36:20;;;;;;;14.03;9.53;;;;;;;14.35;100.00;101045.07;1533507;90;21199;-79
2023/10/17 09:38:46;;;;;;;15.28;9.35;;;;;;;14.67;100.00;101038.28;1360410;91;21279;-81
2023/10/17 09:41:18;;;;;;;13.40;8.97;;;;;;;14.91;100.00;101041.56;1375920;90;21515;-81
2023/10/17 09:43:50;;;;;;;12.50;8.60;;;;;;;14.84;100.00;101041.35;1443568;90;21763;-82
2023/10/17 09:46:27;;;;;;;13.30;9.08;;;;;;;15.40;100.00;101036.87;1533584;90;21162;-82
2023/10/17 09:48:55;;;;;;;10.90;8.20;;;;;;;15.94;100.00;101039.91;1533590;90;21206;-80
2023/10/17 09:51:31;;;;;;;10.10;8.98;;;;;;;16.18;100.00;101039.07;1531967;90;21295;-79
2023/10/17 09:53:58;;;;;;;10.53;8.25;;;;;;;16.26;100.00;101035.05;1374269;91;21354;-80
2023/10/17 09:56:29;;;;;;;11.73;9.10;;;;;;;15.73;85.89;101031.91;1347843;92;22035;-79
2023/10/17 09:59:03;;;;;;;12.33;9.83;;;;;;;15.38;67.82;101029.52;1373831;90;21442;-81
2023/10/17 10:01:31;;;;;;;11.60;8.75;;;;;;;15.60;72.89;101025.39;1523760;90;21325;-80
2023/10/17 10:04:03;;;;;;;9.70;8.45;;;;;;;15.70;70.84;101020.74;1449954;90;22336;-82
2023/10/17 10:06:36;;;;;;;12.53;9.00;;;;;;;15.65;68.44;101022.56;1446906;90;21665;-81
2023/10/17 10:09:13;;;;;;;10.35;8.58;;;;;;;15.35;69.88;101016.84;1453444;90;21599;-80
2023/10/17 10:11:53;;;;;;;11.55;8.08;;;;;;;15.22;71.39;101012.51;1447519;90;21443;-81
2023/10/17 10:14:27;;;;;;;12.93;9.63;;;;;;;15.22;69.24;101016.51;1448845;90;21486;-80
2023/10/17 10:17:00;;;;;;;11.05;7.95;;;;;;;15.58;72.28;101014.88;1448496;90;21830;-87
2023/10/17 10:19:49;;;;;;;12.25;8.13;;;;;;;15.45;72.47;101019.38;1454363;90;21465;-86
2023/10/17 10:22:16;;;;;;;14.83;9.75;;;;;;;15.15;65.41;101014.14;1452620;90;21420;-84
2023/10/17 10:24:46;;;;;;;10.90;7.78;;;;;;;15.17;66.49;101015.33;1451464;90;21627;-85
2023/10/17 10:27:27;;;;;;;10.15;8.30;;;;;;;15.10;64.68;101013.79;1469893;90;21376;-78
2023/10/17 10:30:35;;;;;;;11.40;8.28;;;;;;;14.94;63.03;101011.92;1452458;90;21376;-79
2023/10/17 10:33:01;;;;;;;11.03;8.43;;;;;;;14.58;63.30;100999.28;1440376;89;21494;-78
2023/10/17 10:35:32;;;;;;;10.37;8.43;;;;;;;14.33;64.37;100999.16;1451101;90;21575;-79
2023/10/17 10:37:59;;;;;;;;;;;;;;;13.91;63.56;100991.89;1453442;90;21376;-79
2023/10/17 10:40:30;;;;;;;12.87;8.27;;;;;;;13.84;65.07;100986.86;1451959;90;20930;-79
2023/10/17 10:42:58;;;;;;;12.37;9.40;;;;;;;13.99;64.81;100993.28;1449779;90;22196;-78
2023/10/17 10:46:00;;;;;;;10.10;7.70;;;;;;;14.05;64.75;100989.66;1533860;90;21184;-79
2023/10/17 10:48:17;;;;;;;11.70;8.80;;;;;;;14.02;63.23;100984.15;1386626;90;21302;-79
2023/10/17 10:50:48;;;;;;;13.43;7.70;;;;;;;13.95;64.44;100975.97;1533563;90;21213;-79
2023/10/17 10:53:31;;;;;;;;;;;;;;;13.96;63.72;100982.95;1473680;90;22167;-79
2023/10/17 10:56:09;;;;;;;11.90;7.80;;;;;;;14.04;61.97;100985.31;1443370;90;20404;-79
2023/10/17 10:58:48;;;;;;;10.17;8.07;;;;;;;14.18;61.91;100976.74;1449664;90;21537;-79
2023/10/17 11:01:15;;;;;;;10.30;7.73;;;;;;;14.25;63.83;100975.14;1533596;90;21391;-79
2023/10/17 11:03:48;;;;;;;9.87;8.47;;;;;;;14.25;62.97;100964.48;1377209;90;21265;-79
2023/10/17 11:06:17;;;;;;;15.00;6.97;;;;;;;14.11;62.55;100968.56;1379607;90;21273;-79
2023/10/17 11:08:46;;;;;;;10.83;8.37;;;;;;;13.92;61.90;100969.59;1532423;89;21323;-79
2023/10/17 11:11:14;;;;;;;11.90;7.47;;;;;;;13.81;63.15;100963.23;1375547;90;21266;-80
2023/10/17 11:13:49;;;;;;;8.33;7.37;;;;;;;13.86;64.63;100956.92;1375831;90;21310;-78
2023/10/17 11:16:24;;;;;;;11.07;7.13;;;;;;;13.98;64.57;100954.36;1533940;90;21244;-79
2023/10/17 11:18:51;;;;;;;12.57;7.67;;;;;;;13.93;62.20;100944.67;1533563;90;22101;-79
2023/10/17 11:21:20;;;;;;;12.00;7.83;;;;;;;13.73;62.36;100943.22;1383050;90;21280;-79
2023/10/17 11:23:54;;;;;;;10.07;7.93;;;;;;;13.83;63.16;100943.11;1375072;90;21407;-79
2023/10/17 11:26:25;;;;;;;9.03;6.50;;;;;;;13.95;63.60;100937.85;1373422;91;22190;-79
2023/10/17 11:28:52;;;;;;;8.37;6.43;;;;;;;13.95;60.00;100940.05;1533755;90;21163;-79
2023/10/17 11:31:24;;;;;;;6.93;5.77;;;;;;;14.22;62.14;100934.19;1377424;90;21391;-79
2023/10/17 11:33:58;;;;;;;9.70;7.50;;;;;;;14.19;57.64;100930.52;1374236;90;21347;-79
2023/10/17 11:36:29;;;;;;;8.30;6.77;;;;;;;14.36;60.21;100928.77;1373680;91;21272;-80
2023/10/17 11:38:56;;;;;;;8.90;6.17;;;;;;;14.58;59.94;100926.03;1528957;90;21400;-79
2023/10/17 11:41:30;;;;;;;7.40;5.62;;;;;;;15.01;60.88;100923.64;1375536;90;21332;-80
2023/10/17 11:43:54;;;;;;;7.72;4.90;;;;;;;15.32;55.94;100915.84;1374604;91;21465;-79
2023/10/17 11:46:31;;;;;;;7.20;5.87;;;;;;;15.48;57.36;100912.85;1374581;90;22079;-79
2023/10/17 11:49:30;;;;;;;9.15;5.33;;;;;;;15.54;56.65;100908.17;1375664;90;21287;-79
2023/10/17 11:52:09;;;;;;;11.10;4.80;;;;;;;15.53;57.18;100903.81;1533600;90;21185;-79
2023/10/17 11:55:33;;;;;;;6.83;5.10;;;;;;;15.66;56.27;100908.16;1405941;90;21566;-80
2023/10/17 11:57:33;;;;;;;6.03;4.80;;;;;;;15.63;53.65;100901.82;1444022;90;22432;-78
2023/10/17 12:00:19;;;;;;;7.92;4.97;;;;;;;15.62;53.33;100901.47;1450467;90;21511;-79
2023/10/17 12:02:41;;;;;;;6.30;4.90;;;;;;;15.53;53.06;100895.81;1532041;89;21250;-78
2023/10/17 12:05:07;;;;;;;9.08;4.00;;;;;;;15.76;54.39;100888.80;1533372;89;21475;-79
2023/10/17 12:07:40;;;;;;;9.05;5.00;;;;;;;15.70;49.07;100889.48;1377140;90;22316;-78
2023/10/17 12:10:04;;;;;;;8.83;5.45;;;;;;;15.75;48.96;100887.15;1527866;90;22404;-79
2023/10/17 12:12:33;;;;;;;6.08;4.53;;;;;;;15.38;48.38;100892.17;1394780;90;22042;-78
2023/10/17 12:14:59;;;;;;;5.95;4.70;;;;;;;15.33;46.62;100888.66;1450379;90;22315;-77
2023/10/17 12:17:25;;;;;;;9.55;4.87;;;;;;;15.44;48.60;100878.16;1456189;90;21456;-78
2023/10/17 12:19:51;;;;;;;9.95;4.47;;;;;;;15.38;47.55;100879.66;1449341;90;21391;-79
2023/10/17 12:22:17;;;;;;;9.30;4.70;;;;;;;15.67;46.63;100873.78;1450092;90;21497;-80
2023/10/17 12:24:46;;;;;;;8.05;4.33;;;;;;;15.78;46.19;100868.13;1437930;90;21516;-80
2023/10/17 12:27:14;;;;;;;6.85;3.92;;;;;;;15.92;46.63;100863.09;1449056;90;21382;-81
2023/10/17 12:29:43;;;;;;;5.53;3.85;;;;;;;15.85;43.33;100862.09;1431455;90;21510;-87
2023/10/17 12:32:10;;;;;;;5.95;3.45;;;;;;;15.93;42.04;100853.56;1451887;90;21428;-81
2023/10/17 12:34:40;;;;;;;6.87;3.62;;;;;;;16.11;43.78;100860.02;1433356;90;21508;-82
2023/10/17 12:37:10;;;;;;;7.50;4.25;;;;;;;16.28;44.31;100863.43;1438306;90;21610;-80
2023/10/17 12:39:35;;;;;;;6.97;3.70;;;;;;;16.37;43.97;100864.22;1454144;90;21442;-82
2023/10/17 12:42:01;;;;;;;6.55;4.22;;;;;;;16.50;43.59;100861.83;1433824;90;21442;-81
2023/10/17 12:44:28;;;;;;;8.73;4.22;;;;;;;16.62;41.92;100855.58;1453543;90;21391;-81
2023/10/17 12:46:55;;;;;;;5.80;3.67;;;;;;;16.82;43.71;100858.14;1449735;90;21375;-80
2023/10/17 12:49:22;;;;;;;6.40;3.58;;;;;;;16.85;40.85;100854.28;1449571;90;22226;-82
2023/10/17 12:51:49;;;;;;;6.42;4.40;;;;;;;16.92;42.21;100853.91;1445879;90;21434;-82
2023/10/17 12:54:15;;;;;;;6.10;3.47;;;;;;;16.95;42.57;100841.52;1440058;90;21955;-81
2023/10/17 12:56:42;;;;;;;10.00;4.50;;;;;;;16.95;42.57;100841.52;1447512;90;21590;-79
2023/10/17 12:59:17;;;;;;;6.90;3.52;;;;;;;17.16;42.63;100840.02;1448312;90;21361;-82
2023/10/17 13:01:36;;;;;;;7.50;3.83;;;;;;;17.29;38.72;100830.36;1446271;90;21457;-82
2023/10/17 13:04:02;;;;;;;4.58;3.75;;;;;;;17.29;38.72;100830.36;1447312;90;21345;-81
2023/10/17 13:06:28;;;;;;;5.08;3.70;;;;;;;17.37;42.07;100828.92;1448923;90;21331;-81
2023/10/17 13:08:57;;;;;;;5.25;3.45;;;;;;;17.36;40.73;100828.61;1451519;90;21480;-82
2023/10/17 13:11:27;;;;;;;5.70;4.20;;;;;;;17.33;38.84;100836.17;1448025;90;21398;-81
2023/10/17 13:13:55;;;;;;;7.03;3.65;;;;;;;17.23;40.62;100840.94;1447862;90;21434;-80
2023/10/17 13:16:26;;;;;;;5.45;3.50;;;;;;;17.33;41.22;100838.34;1452026;90;21523;-81
2023/10/17 13:18:54;;;;;;;7.47;3.60;;;;;;;17.36;41.46;100845.17;1448723;89;21434;-80
2023/10/17 13:21:21;;;;;;;6.60;3.80;;;;;;;17.72;42.08;100834.61;1451525;90;22329;-81
2023/10/17 13:23:48;;;;;;;7.75;3.62;;;;;;;17.77;40.39;100828.17;1531730;90;21325;-81
2023/10/17 13:26:18;;;;;;;3.60;3.02;;;;;;;17.49;38.91;100830.67;1533540;90;22049;-81
2023/10/17 13:28:43;;;;;;;6.60;3.10;;;;;;;17.16;38.61;100829.31;1374204;91;21324;-80
2023/10/17 13:31:15;;;;;;;10.78;3.72;;;;;;;16.78;39.87;100836.80;1378239;90;21199;-80
2023/10/17 13:33:43;;;;;;;6.22;4.03;;;;;;;16.46;40.71;100827.95;1362141;91;21419;-80